Time;durP1;ratioP1;P1;durP2;ratioP2;P2;SDS_P1;SDS_P2;PMS_P1;PMS_P2;Temp;Humidity;BMP_temperature;BMP_pressure;BME280_temperature;BME280_humidity;BME280_pressure;Samples;Min_cycle;Max_cycle;Signal;HPM_P1;HPM_P2
2023/01/16 00:02:15;;;;;;;;;9.00;8.00;;;;;;;;118095;1176;26224;-70
2023/01/16 00:04:43;;;;;;;;;9.25;6.50;;;;;;;;118122;1178;25576;-70
2023/01/16 00:07:12;;;;;;;;;10.00;7.67;;;;;;;;118148;1186;25424;-69
2023/01/16 00:09:40;;;;;;;;;10.33;7.67;;;;;;;;117917;1191;26418;-70
2023/01/16 00:12:09;;;;;;;;;6.75;6.75;;;;;;;;118007;1177;25351;-74
2023/01/16 00:14:37;;;;;;;;;8.25;7.50;;;;;;;;117907;1190;25685;-71
2023/01/16 00:17:06;;;;;;;;;9.00;9.00;;;;;;;;118224;1177;25102;-70
2023/01/16 00:19:35;;;;;;;;;14.50;8.50;;;;;;;;118142;1190;24804;-69
2023/01/16 00:22:04;;;;;;;;;8.67;6.67;;;;;;;;118102;1176;25522;-71
2023/01/16 00:24:32;;;;;;;;;9.67;7.67;;;;;;;;118143;1177;24773;-70
2023/01/16 00:27:00;;;;;;;;;7.67;6.33;;;;;;;;118098;1190;25303;-69
2023/01/16 00:29:29;;;;;;;;;9.33;8.00;;;;;;;;118020;1177;24829;-70
2023/01/16 00:31:57;;;;;;;;;9.75;8.75;;;;;;;;118143;1190;25189;-78
2023/01/16 00:34:26;;;;;;;;;10.00;8.33;;;;;;;;118164;1183;25081;-74
2023/01/16 00:36:54;;;;;;;;;10.00;9.00;;;;;;;;118023;1190;25566;-72
2023/01/16 00:39:23;;;;;;;;;7.50;6.00;;;;;;;;118125;1182;25197;-71
2023/01/16 00:41:51;;;;;;;;;9.00;8.33;;;;;;;;117997;1178;25460;-72
2023/01/16 00:44:20;;;;;;;;;9.00;8.00;;;;;;;;118130;1190;25308;-73
2023/01/16 00:46:48;;;;;;;;;7.50;7.50;;;;;;;;118160;1177;25611;-82
2023/01/16 00:49:17;;;;;;;;;9.00;7.50;;;;;;;;118388;1189;25326;-80
2023/01/16 00:51:45;;;;;;;;;8.75;5.50;;;;;;;;118047;1181;25536;-77
2023/01/16 00:54:14;;;;;;;;;8.50;7.00;;;;;;;;118178;1176;24926;-75
2023/01/16 00:56:42;;;;;;;;;8.33;8.33;;;;;;;;118179;1188;25651;-79
2023/01/16 00:59:11;;;;;;;;;8.00;7.75;;;;;;;;118225;1178;25268;-76
2023/01/16 01:01:39;;;;;;;;;9.00;7.00;;;;;;;;118149;1190;25657;-76
2023/01/16 01:04:08;;;;;;;;;7.33;7.33;;;;;;;;118165;1190;25330;-76
2023/01/16 01:06:37;;;;;;;;;7.33;7.33;;;;;;;;118026;1183;25717;-75
2023/01/16 01:09:06;;;;;;;;;7.25;7.25;;;;;;;;118128;1183;25395;-75
2023/01/16 01:11:34;;;;;;;;;6.00;6.00;;;;;;;;118035;1190;25116;-75
2023/01/16 01:14:03;;;;;;;;;6.00;6.00;;;;;;;;117936;1179;24890;-74
2023/01/16 01:16:31;;;;;;;;;8.33;7.00;;;;;;;;118024;1187;25554;-78
2023/01/16 01:19:00;;;;;;;;;7.00;7.00;;;;;;;;118062;1191;24731;-79
2023/01/16 01:21:29;;;;;;;;;6.75;5.75;;;;;;;;118011;1188;24871;-78
2023/01/16 01:23:57;;;;;;;;;7.50;7.50;;;;;;;;117959;1177;25502;-81
2023/01/16 01:26:25;;;;;;;;;8.25;6.75;;;;;;;;117897;1177;25274;-75
2023/01/16 01:28:54;;;;;;;;;9.33;7.33;;;;;;;;117830;1180;24705;-75
2023/01/16 01:31:23;;;;;;;;;7.50;7.50;;;;;;;;117852;1190;24999;-79
2023/01/16 01:33:51;;;;;;;;;5.00;5.00;;;;;;;;117870;1190;25449;-78
2023/01/16 01:36:20;;;;;;;;;6.75;5.00;;;;;;;;117925;1177;25559;-75
2023/01/16 01:38:50;;;;;;;;;6.00;5.50;;;;;;;;117922;1190;24762;-80
2023/01/16 01:41:18;;;;;;;;;8.67;7.33;;;;;;;;117893;1177;25060;-77
2023/01/16 01:43:52;;;;;;;;;9.75;6.00;;;;;;;;117941;1181;25182;-78
2023/01/16 01:46:29;;;;;;;;;9.75;6.00;;;;;;;;117926;1179;25206;-76
2023/01/16 01:49:05;;;;;;;;;4.75;4.00;;;;;;;;118153;1177;24744;-78
2023/01/16 01:51:38;;;;;;;;;6.75;6.50;;;;;;;;118145;1177;25526;-72
2023/01/16 01:54:10;;;;;;;;;8.25;7.50;;;;;;;;118056;1180;25028;-74
2023/01/16 01:56:47;;;;;;;;;8.00;7.00;;;;;;;;117854;1190;25416;-76
2023/01/16 01:59:27;;;;;;;;;7.75;7.75;;;;;;;;117926;1179;25557;-79
2023/01/16 02:01:56;;;;;;;;;9.50;6.75;;;;;;;;118083;1178;25328;-72
2023/01/16 02:04:29;;;;;;;;;6.67;6.67;;;;;;;;118012;1188;24695;-71
2023/01/16 02:07:01;;;;;;;;;7.75;6.50;;;;;;;;118074;1177;25715;-69
2023/01/16 02:09:30;;;;;;;;;8.33;8.33;;;;;;;;118002;1190;24885;-71
2023/01/16 02:12:04;;;;;;;;;7.50;6.50;;;;;;;;117948;1180;25229;-71
2023/01/16 02:14:36;;;;;;;;;7.33;5.00;;;;;;;;117940;1177;25485;-72
2023/01/16 02:20:36;;;;;;;;;10.00;7.25;;;;;;;;117951;1180;24944;-71
2023/01/16 02:23:39;;;;;;;;;7.00;6.00;;;;;;;;118000;1177;25782;-71
2023/01/16 02:26:16;;;;;;;;;5.67;5.00;;;;;;;;117982;1177;25032;-73
2023/01/16 02:29:21;;;;;;;;;5.00;5.00;;;;;;;;118072;1190;25353;-73
2023/01/16 02:32:08;;;;;;;;;7.00;7.00;;;;;;;;117981;1177;25326;-73
2023/01/16 02:35:10;;;;;;;;;8.33;8.33;;;;;;;;118029;1177;25771;-73
2023/01/16 02:37:51;;;;;;;;;9.67;7.67;;;;;;;;117982;1180;25570;-74
2023/01/16 02:40:41;;;;;;;;;7.50;7.50;;;;;;;;118156;1189;25674;-72
2023/01/16 02:43:19;;;;;;;;;6.00;6.00;;;;;;;;118189;1177;24996;-72
2023/01/16 02:45:48;;;;;;;;;5.33;3.33;;;;;;;;117961;1177;25191;-72
2023/01/16 02:48:28;;;;;;;;;9.50;6.75;;;;;;;;117972;1190;25340;-73
2023/01/16 02:51:10;;;;;;;;;6.33;6.33;;;;;;;;117935;1190;25276;-72
2023/01/16 02:53:49;;;;;;;;;9.50;7.00;;;;;;;;118114;1177;25282;-67
2023/01/16 02:56:26;;;;;;;;;7.00;5.00;;;;;;;;117935;1190;25514;-66
2023/01/16 02:58:56;;;;;;;;;8.33;7.00;;;;;;;;117849;1189;25077;-66
2023/01/16 03:01:24;;;;;;;;;8.50;7.00;;;;;;;;117947;1190;24809;-67
2023/01/16 03:03:53;;;;;;;;;7.50;6.75;;;;;;;;118153;1177;25395;-66
2023/01/16 03:06:58;;;;;;;;;6.33;5.67;;;;;;;;117986;1188;25148;-66
2023/01/16 03:09:49;;;;;;;;;5.00;5.00;;;;;;;;118089;1189;25342;-66
2023/01/16 03:12:34;;;;;;;;;7.00;6.67;;;;;;;;118024;1180;25564;-67
2023/01/16 03:15:36;;;;;;;;;7.67;4.67;;;;;;;;118218;1178;25404;-67
2023/01/16 03:18:29;;;;;;;;;7.75;7.00;;;;;;;;118088;1184;24863;-67
2023/01/16 03:21:16;;;;;;;;;6.00;6.00;;;;;;;;117966;1177;25415;-66
2023/01/16 03:23:54;;;;;;;;;6.00;6.00;;;;;;;;118023;1184;24916;-68
2023/01/16 03:26:37;;;;;;;;;7.50;6.50;;;;;;;;118117;1190;25651;-69
2023/01/16 03:29:08;;;;;;;;;7.33;6.67;;;;;;;;117999;1181;25422;-69
2023/01/16 03:31:51;;;;;;;;;5.50;5.50;;;;;;;;118091;1184;25080;-69
2023/01/16 03:34:33;;;;;;;;;8.33;6.67;;;;;;;;117932;1183;24777;-69
2023/01/16 03:37:27;;;;;;;;;6.00;5.50;;;;;;;;118075;1176;25415;-69
2023/01/16 03:40:05;;;;;;;;;7.25;6.75;;;;;;;;118110;1184;25653;-69
2023/01/16 03:42:42;;;;;;;;;7.00;5.67;;;;;;;;117843;1190;25038;-69
2023/01/16 03:45:21;;;;;;;;;7.67;5.67;;;;;;;;117861;1179;25302;-69
2023/01/16 03:47:57;;;;;;;;;5.00;2.75;;;;;;;;117920;1177;24733;-68
2023/01/16 03:50:27;;;;;;;;;6.50;5.50;;;;;;;;118041;1189;24902;-69
2023/01/16 03:53:04;;;;;;;;;5.33;5.33;;;;;;;;117870;1190;24830;-65
2023/01/16 03:55:43;;;;;;;;;5.33;5.33;;;;;;;;117963;1178;25374;-66
2023/01/16 03:58:24;;;;;;;;;5.67;5.33;;;;;;;;118128;1184;25376;-67
2023/01/16 04:01:04;;;;;;;;;11.25;8.25;;;;;;;;118115;1177;25312;-67
2023/01/16 04:03:50;;;;;;;;;8.75;6.50;;;;;;;;117903;1190;24828;-68
2023/01/16 04:06:48;;;;;;;;;6.00;6.00;;;;;;;;117918;1179;24681;-68
2023/01/16 04:09:38;;;;;;;;;6.00;5.33;;;;;;;;118064;1190;25258;-69
2023/01/16 04:12:10;;;;;;;;;5.00;5.00;;;;;;;;117793;1190;25003;-68
2023/01/16 04:14:39;;;;;;;;;4.33;4.00;;;;;;;;119832;1182;25096;-67
2023/01/16 04:17:08;;;;;;;;;5.25;4.50;;;;;;;;117844;1177;25150;-67
2023/01/16 04:19:36;;;;;;;;;4.67;4.33;;;;;;;;117864;1177;25213;-66
2023/01/16 04:22:06;;;;;;;;;5.00;5.00;;;;;;;;117884;1187;25692;-66
2023/01/16 04:24:35;;;;;;;;;5.00;4.67;;;;;;;;117940;1179;24941;-66
2023/01/16 04:27:04;;;;;;;;;8.00;6.67;;;;;;;;117953;1190;25045;-66
2023/01/16 04:29:32;;;;;;;;;6.00;5.67;;;;;;;;117966;1178;25441;-67
2023/01/16 04:32:00;;;;;;;;;3.00;3.00;;;;;;;;117954;1190;25027;-67
2023/01/16 04:34:29;;;;;;;;;6.00;6.00;;;;;;;;117973;1188;25066;-67
2023/01/16 04:36:58;;;;;;;;;6.75;3.50;;;;;;;;117862;1190;25643;-67
2023/01/16 04:39:26;;;;;;;;;6.00;4.75;;;;;;;;117845;1190;25003;-67
2023/01/16 04:41:55;;;;;;;;;2.50;2.50;;;;;;;;117824;1179;25654;-67
2023/01/16 04:44:24;;;;;;;;;3.75;3.75;;;;;;;;117886;1190;25866;-66
2023/01/16 04:46:53;;;;;;;;;10.67;6.00;;;;;;;;117962;1190;25000;-67
2023/01/16 04:49:22;;;;;;;;;5.00;4.00;;;;;;;;117917;1190;25676;-67
2023/01/16 04:51:50;;;;;;;;;6.00;4.33;;;;;;;;117881;1177;25607;-67
2023/01/16 04:54:19;;;;;;;;;4.75;4.25;;;;;;;;117918;1177;25350;-68
2023/01/16 04:56:48;;;;;;;;;3.00;3.00;;;;;;;;117867;1178;24806;-68
2023/01/16 04:59:18;;;;;;;;;4.67;4.67;;;;;;;;117889;1190;25575;-68
2023/01/16 05:01:46;;;;;;;;;4.00;4.00;;;;;;;;117953;1177;25071;-68
2023/01/16 05:04:16;;;;;;;;;4.00;2.00;;;;;;;;117909;1179;25324;-68
2023/01/16 05:06:44;;;;;;;;;5.33;4.67;;;;;;;;118123;1177;25670;-68
2023/01/16 05:09:13;;;;;;;;;5.33;4.67;;;;;;;;118080;1189;25110;-67
2023/01/16 05:11:41;;;;;;;;;4.00;4.00;;;;;;;;117925;1179;25102;-68
2023/01/16 05:14:10;;;;;;;;;5.33;5.00;;;;;;;;118057;1183;25500;-68
2023/01/16 05:16:41;;;;;;;;;4.00;4.00;;;;;;;;117913;1185;25225;-68
2023/01/16 05:19:10;;;;;;;;;3.00;1.75;;;;;;;;117901;1177;25744;-67
2023/01/16 05:21:39;;;;;;;;;5.00;5.00;;;;;;;;117903;1177;24755;-68
2023/01/16 05:24:08;;;;;;;;;9.25;5.25;;;;;;;;118069;1183;25251;-67
2023/01/16 05:26:36;;;;;;;;;2.33;2.33;;;;;;;;118120;1178;25073;-68
2023/01/16 05:29:05;;;;;;;;;6.25;5.00;;;;;;;;118090;1178;25543;-68
2023/01/16 05:31:33;;;;;;;;;5.67;3.33;;;;;;;;118099;1177;26103;-69
2023/01/16 05:34:02;;;;;;;;;5.50;4.00;;;;;;;;117918;1179;24830;-66
2023/01/16 05:36:30;;;;;;;;;5.75;5.00;;;;;;;;117989;1189;24861;-68
2023/01/16 05:38:59;;;;;;;;;3.50;3.50;;;;;;;;118077;1189;25467;-69
2023/01/16 05:41:27;;;;;;;;;4.25;4.00;;;;;;;;118037;1178;25254;-69
2023/01/16 05:43:56;;;;;;;;;3.00;2.75;;;;;;;;117993;1190;25335;-68
2023/01/16 05:46:24;;;;;;;;;3.33;3.33;;;;;;;;117934;1180;25366;-68
2023/01/16 05:48:53;;;;;;;;;3.33;3.33;;;;;;;;118116;1177;25313;-70
2023/01/16 05:51:21;;;;;;;;;5.00;3.33;;;;;;;;118082;1177;25022;-70
2023/01/16 05:53:51;;;;;;;;;6.67;5.33;;;;;;;;117942;1190;26461;-70
2023/01/16 05:56:21;;;;;;;;;4.67;4.67;;;;;;;;117952;1190;25236;-70
2023/01/16 05:58:50;;;;;;;;;6.67;5.33;;;;;;;;117956;1190;25482;-70
2023/01/16 06:01:18;;;;;;;;;5.00;5.00;;;;;;;;117930;1177;25676;-70
2023/01/16 06:03:47;;;;;;;;;3.50;3.00;;;;;;;;117919;1190;25626;-74
2023/01/16 06:06:16;;;;;;;;;5.00;4.00;;;;;;;;117915;1177;25698;-71
2023/01/16 06:08:46;;;;;;;;;3.00;3.00;;;;;;;;117933;1177;24777;-71
2023/01/16 06:11:15;;;;;;;;;8.50;6.50;;;;;;;;117946;1190;24747;-71
2023/01/16 06:13:46;;;;;;;;;3.67;3.00;;;;;;;;117929;1177;25139;-70
2023/01/16 06:16:14;;;;;;;;;5.00;5.00;;;;;;;;117837;1179;24950;-71
2023/01/16 06:18:43;;;;;;;;;6.67;4.00;;;;;;;;117874;1188;25002;-71
2023/01/16 06:21:11;;;;;;;;;3.00;3.00;;;;;;;;117872;1177;25139;-71
2023/01/16 06:23:40;;;;;;;;;6.00;6.00;;;;;;;;117900;1177;26084;-69
2023/01/16 06:26:09;;;;;;;;;7.25;5.50;;;;;;;;118021;1183;25391;-71
2023/01/16 06:28:38;;;;;;;;;3.25;3.25;;;;;;;;117862;1177;26156;-71
2023/01/16 06:31:07;;;;;;;;;5.25;5.25;;;;;;;;117940;1189;25052;-71
2023/01/16 06:33:35;;;;;;;;;2.33;2.33;;;;;;;;117884;1190;25012;-71
2023/01/16 06:36:04;;;;;;;;;4.33;4.00;;;;;;;;117952;1183;24738;-71
2023/01/16 06:38:33;;;;;;;;;4.50;4.00;;;;;;;;117956;1178;25593;-72
2023/01/16 06:41:01;;;;;;;;;8.00;5.33;;;;;;;;117956;1177;25554;-72
2023/01/16 06:43:30;;;;;;;;;5.25;4.25;;;;;;;;117974;1177;25548;-70
2023/01/16 06:45:58;;;;;;;;;4.50;4.00;;;;;;;;118099;1177;26108;-75
2023/01/16 06:55:59;;;;;;;;;5.25;4.00;;;;;;;;116365;1199;23351;-71
2023/01/16 06:58:28;;;;;;;;;6.00;6.00;;;;;;;;117387;1184;23438;-71
2023/01/16 07:00:57;;;;;;;;;7.25;5.00;;;;;;;;117373;1183;25531;-70
2023/01/16 07:03:26;;;;;;;;;7.50;6.25;;;;;;;;117104;1196;25614;-71
2023/01/16 07:05:54;;;;;;;;;4.00;4.00;;;;;;;;117138;1186;25359;-71
2023/01/16 07:08:23;;;;;;;;;5.33;4.00;;;;;;;;117371;1183;26198;-70
2023/01/16 07:10:51;;;;;;;;;6.50;5.25;;;;;;;;117162;1189;24861;-71
2023/01/16 07:13:26;;;;;;;;;5.50;4.00;;;;;;;;117182;1184;26295;-70
2023/01/16 07:24:23;;;;;;;;;7.00;5.00;;;;;;;;117185;1185;24921;-72
2023/01/16 07:26:59;;;;;;;;;6.67;5.00;;;;;;;;117121;1196;25002;-74
2023/01/16 07:29:30;;;;;;;;;6.00;5.33;;;;;;;;117156;1196;24802;-69
2023/01/16 07:32:00;;;;;;;;;6.67;6.33;;;;;;;;117335;1184;25668;-69
2023/01/16 07:34:28;;;;;;;;;7.00;5.00;;;;;;;;117361;1183;25691;-70
2023/01/16 07:36:57;;;;;;;;;5.00;5.00;;;;;;;;117145;1196;25369;-70
2023/01/16 07:39:25;;;;;;;;;4.00;4.00;;;;;;;;117390;1183;24990;-70
2023/01/16 07:41:54;;;;;;;;;4.00;4.00;;;;;;;;117157;1184;25674;-69
2023/01/16 07:44:25;;;;;;;;;8.33;7.00;;;;;;;;117353;1184;25207;-69
2023/01/16 07:46:54;;;;;;;;;5.00;5.00;;;;;;;;117352;1196;24903;-69
2023/01/16 07:49:22;;;;;;;;;6.00;5.00;;;;;;;;117383;1187;24843;-70
2023/01/16 07:51:51;;;;;;;;;8.25;6.75;;;;;;;;118014;1177;24837;-70
2023/01/16 07:54:21;;;;;;;;;4.33;2.67;;;;;;;;117857;1177;26086;-73
2023/01/16 07:56:49;;;;;;;;;7.00;6.00;;;;;;;;118004;1189;24889;-73
2023/01/16 07:59:18;;;;;;;;;5.00;3.00;;;;;;;;117988;1179;25295;-72
2023/01/16 08:01:47;;;;;;;;;7.50;5.75;;;;;;;;117952;1190;25264;-73
2023/01/16 08:04:15;;;;;;;;;8.50;5.50;;;;;;;;118078;1190;25478;-73
2023/01/16 08:06:44;;;;;;;;;5.00;5.00;;;;;;;;118045;1178;24681;-71
2023/01/16 08:09:13;;;;;;;;;4.67;4.67;;;;;;;;118006;1177;25204;-70
2023/01/16 08:11:46;;;;;;;;;6.33;5.00;;;;;;;;118020;1182;25076;-71
2023/01/16 08:14:15;;;;;;;;;4.33;4.33;;;;;;;;117996;1190;24922;-69
2023/01/16 08:16:43;;;;;;;;;9.00;7.33;;;;;;;;117997;1177;25520;-72
2023/01/16 08:19:12;;;;;;;;;10.00;6.00;;;;;;;;117981;1177;25034;-69
2023/01/16 08:21:41;;;;;;;;;6.50;5.00;;;;;;;;117929;1177;25096;-71
2023/01/16 08:24:12;;;;;;;;;8.25;6.25;;;;;;;;117968;1179;25258;-72
2023/01/16 08:26:41;;;;;;;;;4.00;4.00;;;;;;;;117819;1180;25229;-72
2023/01/16 08:29:10;;;;;;;;;6.00;6.00;;;;;;;;117911;1191;25041;-70
2023/01/16 08:31:38;;;;;;;;;6.00;6.00;;;;;;;;117926;1178;25296;-70
2023/01/16 08:34:07;;;;;;;;;8.25;6.75;;;;;;;;117918;1183;25054;-72
2023/01/16 08:36:36;;;;;;;;;4.00;2.00;;;;;;;;117885;1190;24864;-74
2023/01/16 08:39:04;;;;;;;;;6.00;6.00;;;;;;;;117830;1187;25203;-75
2023/01/16 08:52:46;;;;;;;;;3.25;3.25;;;;;;;;117865;1184;24717;-76
2023/01/16 08:55:15;;;;;;;;;6.50;6.50;;;;;;;;117928;1181;25579;-75
2023/01/16 08:57:44;;;;;;;;;11.67;6.00;;;;;;;;117961;1180;25548;-71
2023/01/16 09:00:13;;;;;;;;;8.33;7.67;;;;;;;;117962;1177;24903;-70
2023/01/16 09:02:41;;;;;;;;;8.00;8.00;;;;;;;;117975;1183;25576;-69
2023/01/16 09:05:10;;;;;;;;;12.25;9.75;;;;;;;;117995;1191;25030;-69
2023/01/16 09:07:39;;;;;;;;;9.00;8.25;;;;;;;;117914;1183;25237;-67
2023/01/16 09:10:08;;;;;;;;;11.33;11.33;;;;;;;;117967;1177;25340;-71
2023/01/16 09:15:25;;;;;;;;;11.00;10.00;;;;;;;;117928;1191;24965;-71
2023/01/16 09:17:53;;;;;;;;;16.00;10.67;;;;;;;;117978;1187;24972;-76
2023/01/16 09:20:22;;;;;;;;;9.75;8.00;;;;;;;;117961;1183;25569;-71
2023/01/16 09:23:00;;;;;;;;;13.33;11.33;;;;;;;;117922;1179;25141;-69
2023/01/16 09:25:29;;;;;;;;;14.67;12.00;;;;;;;;117876;1180;25082;-65
2023/01/16 09:27:59;;;;;;;;;15.25;13.00;;;;;;;;117844;1187;24692;-66
2023/01/16 09:30:27;;;;;;;;;12.50;10.00;;;;;;;;117859;1190;24948;-66
2023/01/16 09:32:56;;;;;;;;;11.67;11.67;;;;;;;;117970;1177;24847;-67
2023/01/16 09:35:24;;;;;;;;;12.33;9.00;;;;;;;;117922;1190;25636;-66
2023/01/16 09:37:53;;;;;;;;;11.00;11.00;;;;;;;;117956;1177;25032;-66
2023/01/16 09:40:22;;;;;;;;;13.00;11.00;;;;;;;;117877;1177;24975;-66
2023/01/16 09:45:46;;;;;;;;;16.50;13.25;;;;;;;;117961;1190;25726;-66
2023/01/16 09:48:27;;;;;;;;;11.00;9.00;;;;;;;;117967;1183;24693;-67
2023/01/16 09:51:05;;;;;;;;;12.25;10.50;;;;;;;;118002;1177;25623;-67
2023/01/16 09:59:41;;;;;;;;;11.75;8.75;;;;;;;;117990;1180;25570;-66
2023/01/16 10:02:19;;;;;;;;;11.00;6.67;;;;;;;;117902;1179;25592;-67
2023/01/16 10:04:49;;;;;;;;;11.75;8.75;;;;;;;;117957;1182;25102;-67
2023/01/16 10:07:33;;;;;;;;;12.00;10.75;;;;;;;;117998;1177;24908;-66
2023/01/16 10:10:20;;;;;;;;;16.00;10.33;;;;;;;;117955;1177;24875;-67
2023/01/16 10:13:20;;;;;;;;;11.00;8.33;;;;;;;;117967;1178;24830;-63
2023/01/16 10:16:23;;;;;;;;;9.00;8.00;;;;;;;;117958;1190;25195;-62
2023/01/16 10:19:05;;;;;;;;;12.00;9.00;;;;;;;;117968;1183;25581;-62
2023/01/16 10:21:49;;;;;;;;;11.33;10.33;;;;;;;;117910;1178;25651;-62
2023/01/16 10:24:34;;;;;;;;;9.25;8.00;;;;;;;;117965;1190;24844;-64
2023/01/16 10:27:27;;;;;;;;;9.00;8.00;;;;;;;;117992;1177;24939;-65
2023/01/16 10:30:03;;;;;;;;;13.33;9.00;;;;;;;;117884;1190;25226;-65
2023/01/16 10:33:08;;;;;;;;;10.00;8.75;;;;;;;;117924;1183;25164;-64
2023/01/16 10:35:41;;;;;;;;;10.50;9.75;;;;;;;;117958;1178;25238;-66
2023/01/16 10:38:15;;;;;;;;;10.00;8.75;;;;;;;;117967;1190;25432;-67
2023/01/16 10:40:46;;;;;;;;;10.00;8.67;;;;;;;;117964;1177;25501;-68
2023/01/16 10:49:28;;;;;;;;;11.75;8.75;;;;;;;;117914;1190;24996;-75
2023/01/16 10:52:00;;;;;;;;;10.50;10.00;;;;;;;;117935;1190;24994;-66
2023/01/16 10:54:28;;;;;;;;;14.67;11.33;;;;;;;;117859;1177;25218;-65
2023/01/16 10:57:03;;;;;;;;;14.33;11.33;;;;;;;;117831;1183;24849;-70
2023/01/16 10:59:32;;;;;;;;;15.33;11.67;;;;;;;;117887;1179;24922;-70
2023/01/16 11:02:08;;;;;;;;;14.00;12.50;;;;;;;;117918;1190;25402;-77
2023/01/16 11:04:37;;;;;;;;;8.00;7.00;;;;;;;;117951;1184;25632;-73
2023/01/16 11:07:14;;;;;;;;;9.75;9.75;;;;;;;;117951;1191;25687;-75
2023/01/16 11:09:45;;;;;;;;;13.25;10.00;;;;;;;;117909;1191;24763;-76
2023/01/16 11:18:32;;;;;;;;;11.33;10.67;;;;;;;;117931;1177;25632;-77
2023/01/16 11:21:15;;;;;;;;;16.00;11.25;;;;;;;;117861;1177;24769;-69
2023/01/16 11:23:47;;;;;;;;;13.33;10.00;;;;;;;;117829;1177;25387;-72
2023/01/16 11:26:16;;;;;;;;;10.50;10.50;;;;;;;;117911;1177;25593;-71
2023/01/16 11:28:47;;;;;;;;;10.00;8.25;;;;;;;;117963;1177;24866;-70
2023/01/16 11:31:30;;;;;;;;;10.67;8.67;;;;;;;;117807;1180;25074;-70
2023/01/16 11:34:02;;;;;;;;;6.00;4.00;;;;;;;;117916;1182;25522;-68
2023/01/16 11:36:33;;;;;;;;;5.50;4.00;;;;;;;;117840;1181;25589;-68
2023/01/16 11:39:01;;;;;;;;;14.00;8.00;;;;;;;;117867;1187;25058;-70
2023/01/16 11:41:36;;;;;;;;;12.75;8.50;;;;;;;;117851;1183;24993;-70
2023/01/16 11:47:26;;;;;;;;;11.00;7.75;;;;;;;;117875;1181;25347;-69
2023/01/16 11:49:55;;;;;;;;;9.75;8.25;;;;;;;;117799;1187;25100;-66
2023/01/16 11:52:26;;;;;;;;;8.25;8.25;;;;;;;;117873;1181;24814;-68
2023/01/16 11:55:01;;;;;;;;;9.67;9.00;;;;;;;;117920;1177;24697;-71
2023/01/16 11:57:32;;;;;;;;;12.00;10.00;;;;;;;;117857;1177;24849;-71
2023/01/16 12:00:10;;;;;;;;;12.67;8.33;;;;;;;;117924;1184;24978;-70
2023/01/16 12:02:51;;;;;;;;;9.50;8.25;;;;;;;;117936;1177;25234;-76
2023/01/16 12:05:59;;;;;;;;;10.50;8.75;;;;;;;;117929;1178;25586;-76
2023/01/16 12:09:13;;;;;;;;;12.00;8.75;;;;;;;;117905;1191;25278;-79
2023/01/16 12:11:44;;;;;;;;;9.50;8.50;;;;;;;;117673;1191;25018;-74
2023/01/16 12:14:18;;;;;;;;;11.50;9.75;;;;;;;;117903;1178;25627;-75
2023/01/16 12:17:22;;;;;;;;;10.00;10.00;;;;;;;;117925;1177;25700;-77
2023/01/16 12:20:19;;;;;;;;;15.67;10.00;;;;;;;;117885;1190;26025;-69
2023/01/16 12:22:53;;;;;;;;;10.75;8.25;;;;;;;;117872;1182;24893;-76
2023/01/16 12:25:30;;;;;;;;;10.25;9.50;;;;;;;;117890;1187;24691;-70
2023/01/16 12:27:58;;;;;;;;;8.00;7.33;;;;;;;;117918;1185;25006;-73
2023/01/16 12:34:27;;;;;;;;;11.33;8.67;;;;;;;;117881;1191;24906;-79
2023/01/16 12:37:20;;;;;;;;;11.00;9.50;;;;;;;;117712;1182;25157;-81
2023/01/16 12:39:58;;;;;;;;;11.00;9.00;;;;;;;;118062;1177;24761;-74
2023/01/16 12:45:43;;;;;;;;;9.75;8.75;;;;;;;;117878;1177;24907;-74
2023/01/16 12:48:24;;;;;;;;;11.00;8.00;;;;;;;;117839;1190;25043;-75
2023/01/16 12:51:11;;;;;;;;;10.25;7.25;;;;;;;;117887;1190;24712;-74
2023/01/16 12:53:55;;;;;;;;;10.67;9.00;;;;;;;;117966;1180;25567;-75
2023/01/16 12:56:51;;;;;;;;;11.25;10.75;;;;;;;;117934;1177;24849;-76
2023/01/16 12:59:27;;;;;;;;;11.75;8.00;;;;;;;;118107;1178;25227;-64
2023/01/16 13:02:09;;;;;;;;;9.00;9.00;;;;;;;;117981;1177;24739;-78
2023/01/16 13:04:44;;;;;;;;;12.25;9.00;;;;;;;;118087;1184;25585;-79
2023/01/16 13:07:15;;;;;;;;;15.00;10.75;;;;;;;;118260;1183;24927;-82
2023/01/16 13:15:56;;;;;;;;;8.00;7.33;;;;;;;;118053;1189;25235;-81
2023/01/16 13:18:35;;;;;;;;;8.00;6.00;;;;;;;;117897;1180;25237;-74
2023/01/16 13:21:07;;;;;;;;;11.00;8.25;;;;;;;;117834;1178;25327;-78
2023/01/16 13:23:44;;;;;;;;;11.00;8.50;;;;;;;;118013;1191;25401;-81
2023/01/16 13:26:15;;;;;;;;;4.00;4.00;;;;;;;;117947;1177;25027;-85
2023/01/16 13:28:46;;;;;;;;;11.50;10.50;;;;;;;;118003;1187;24921;-79
2023/01/16 13:31:37;;;;;;;;;8.33;5.67;;;;;;;;118075;1183;24799;-75
2023/01/16 13:34:41;;;;;;;;;11.33;8.67;;;;;;;;117863;1184;25555;-69
2023/01/16 13:37:48;;;;;;;;;13.67;8.33;;;;;;;;117854;1190;25579;-76
2023/01/16 13:40:37;;;;;;;;;10.33;7.67;;;;;;;;117904;1190;25810;-75
2023/01/16 13:46:16;;;;;;;;;9.50;8.00;;;;;;;;117875;1180;25625;-72
2023/01/16 13:48:52;;;;;;;;;9.50;8.00;;;;;;;;117880;1188;25193;-72
2023/01/16 13:51:23;;;;;;;;;13.50;13.00;;;;;;;;117872;1181;25181;-72
2023/01/16 13:54:05;;;;;;;;;17.25;12.00;;;;;;;;117823;1190;25078;-72
2023/01/16 13:56:33;;;;;;;;;18.75;14.25;;;;;;;;117815;1177;25415;-67
2023/01/16 13:59:08;;;;;;;;;13.00;13.00;;;;;;;;117861;1186;25595;-72
2023/01/16 14:01:56;;;;;;;;;13.33;13.00;;;;;;;;117901;1190;24778;-72
2023/01/16 14:04:31;;;;;;;;;14.75;12.50;;;;;;;;117857;1184;25175;-74
2023/01/16 14:10:12;;;;;;;;;12.00;10.67;;;;;;;;117888;1177;25945;-77
2023/01/16 14:13:01;;;;;;;;;12.75;12.50;;;;;;;;117910;1177;25258;-74
2023/01/16 14:18:45;;;;;;;;;12.25;11.50;;;;;;;;117945;1177;25203;-73
2023/01/16 14:21:21;;;;;;;;;13.00;8.00;;;;;;;;117829;1177;25337;-73
2023/01/16 14:24:02;;;;;;;;;8.75;8.00;;;;;;;;117944;1177;25103;-73
2023/01/16 14:26:36;;;;;;;;;9.25;8.75;;;;;;;;117976;1177;24761;-73
2023/01/16 14:29:29;;;;;;;;;10.00;9.00;;;;;;;;117865;1178;25287;-73
2023/01/16 14:32:15;;;;;;;;;9.33;9.00;;;;;;;;117902;1179;25282;-72
2023/01/16 14:34:53;;;;;;;;;10.00;9.25;;;;;;;;117884;1183;24720;-73
2023/01/16 14:37:35;;;;;;;;;9.00;7.00;;;;;;;;117945;1189;24937;-74
2023/01/16 14:40:09;;;;;;;;;10.00;8.25;;;;;;;;117903;1179;25174;-73
2023/01/16 14:57:24;;;;;;;;;12.00;10.00;;;;;;;;117918;1187;24750;-66
2023/01/16 15:00:14;;;;;;;;;8.25;7.00;;;;;;;;117827;1177;26105;-67
2023/01/16 15:02:53;;;;;;;;;10.00;9.00;;;;;;;;117902;1190;25630;-67
2023/01/16 15:05:49;;;;;;;;;11.50;9.25;;;;;;;;117915;1177;25069;-67
2023/01/16 15:08:23;;;;;;;;;11.00;9.00;;;;;;;;117830;1179;25164;-69
2023/01/16 15:10:54;;;;;;;;;11.00;10.00;;;;;;;;117837;1190;24750;-67
2023/01/16 15:13:25;;;;;;;;;9.33;8.00;;;;;;;;117850;1177;25206;-66
2023/01/16 15:15:58;;;;;;;;;11.00;8.00;;;;;;;;118027;1177;25151;-67
2023/01/16 15:21:59;;;;;;;;;9.25;7.50;;;;;;;;117913;1177;26323;-64
2023/01/16 15:24:15;;;;;;;;;12.50;10.50;;;;;;;;117879;1180;25226;-66
2023/01/16 15:26:50;;;;;;;;;8.50;8.00;;;;;;;;117942;1177;25453;-66
2023/01/16 15:29:41;;;;;;;;;11.25;9.75;;;;;;;;117802;1177;24993;-67
2023/01/16 15:32:21;;;;;;;;;10.33;9.00;;;;;;;;117905;1177;25257;-68
2023/01/16 15:35:15;;;;;;;;;12.75;10.00;;;;;;;;117941;1177;25102;-66
2023/01/16 15:37:55;;;;;;;;;8.75;8.00;;;;;;;;117952;1177;25141;-64
2023/01/16 15:40:29;;;;;;;;;7.25;7.25;;;;;;;;117966;1182;25495;-66
2023/01/16 15:48:49;;;;;;;;;6.25;6.25;;;;;;;;117941;1180;25666;-70
2023/01/16 15:51:36;;;;;;;;;10.67;10.33;;;;;;;;117921;1191;24691;-69
2023/01/16 15:54:04;;;;;;;;;8.00;8.00;;;;;;;;117901;1180;25609;-67
2023/01/16 15:56:39;;;;;;;;;7.50;7.50;;;;;;;;117922;1179;24879;-67
2023/01/16 15:59:25;;;;;;;;;7.00;7.00;;;;;;;;117899;1178;25679;-65
2023/01/16 16:02:22;;;;;;;;;7.50;7.50;;;;;;;;117943;1190;24862;-66
2023/01/16 16:04:54;;;;;;;;;8.50;8.50;;;;;;;;117940;1177;25588;-75
2023/01/16 16:07:23;;;;;;;;;9.25;9.25;;;;;;;;118128;1189;25525;-79
2023/01/16 16:09:58;;;;;;;;;11.00;10.33;;;;;;;;118199;1177;25166;-76
2023/01/16 16:12:27;;;;;;;;;9.00;8.25;;;;;;;;118223;1178;25363;-77
2023/01/16 16:18:16;;;;;;;;;7.00;6.75;;;;;;;;118001;1178;25723;-79
2023/01/16 16:20:46;;;;;;;;;7.00;7.00;;;;;;;;118044;1178;24788;-73
2023/01/16 16:23:23;;;;;;;;;12.25;8.00;;;;;;;;117924;1177;24965;-75
2023/01/16 16:25:55;;;;;;;;;8.00;6.00;;;;;;;;117848;1178;25499;-77
2023/01/16 16:28:41;;;;;;;;;9.50;8.50;;;;;;;;117966;1190;24969;-77
2023/01/16 16:31:24;;;;;;;;;8.00;8.00;;;;;;;;117863;1180;24950;-73
2023/01/16 16:33:57;;;;;;;;;7.00;7.00;;;;;;;;117818;1183;26234;-72
2023/01/16 16:36:26;;;;;;;;;11.00;6.00;;;;;;;;117893;1179;25483;-72
2023/01/16 16:38:56;;;;;;;;;10.00;9.00;;;;;;;;117845;1181;24757;-67
2023/01/16 16:42:25;;;;;;;;;10.67;10.33;;;;;;;;117844;1183;24827;-68
2023/01/16 16:44:36;;;;;;;;;6.50;6.50;;;;;;;;117879;1177;25301;-67
2023/01/16 16:47:21;;;;;;;;;7.25;7.25;;;;;;;;117895;1187;24949;-68
2023/01/16 16:49:50;;;;;;;;;7.25;7.00;;;;;;;;117940;1183;25098;-72
2023/01/16 16:52:30;;;;;;;;;5.75;4.75;;;;;;;;117956;1177;24829;-71
2023/01/16 16:54:59;;;;;;;;;8.00;8.00;;;;;;;;117894;1177;25461;-71